Time;durP1;ratioP1;P1;durP2;ratioP2;P2;SDS_P1;SDS_P2;PMS_P1;PMS_P2;Temp;Humidity;BMP_temperature;BMP_pressure;BME280_temperature;BME280_humidity;BME280_pressure;Samples;Min_cycle;Max_cycle;Signal;HPM_P1;HPM_P2
2022/03/18 00:00:00;;;;;;;6.60;3.60;;;4.80;99.90;;;;;;5053248;28;20664;-59
2022/03/18 00:02:26;;;;;;;11.48;6.35;;;4.70;99.90;;;;;;5036420;28;20194;-60
2022/03/18 00:04:53;;;;;;;13.13;3.97;;;4.70;99.90;;;;;;5054343;28;20705;-61
2022/03/18 00:07:20;;;;;;;11.23;4.22;;;4.70;99.90;;;;;;5053370;28;20061;-60
2022/03/18 00:09:47;;;;;;;7.60;3.50;;;4.70;99.90;;;;;;5054417;28;20049;-60
2022/03/18 00:12:13;;;;;;;5.40;3.38;;;4.70;99.90;;;;;;5052257;28;20048;-60
2022/03/18 00:14:41;;;;;;;13.25;5.55;;;4.70;99.90;;;;;;5041049;28;20196;-60
2022/03/18 00:17:08;;;;;;;9.50;6.05;;;4.60;99.90;;;;;;5042697;28;20046;-60
2022/03/18 00:19:35;;;;;;;12.30;3.97;;;4.70;99.90;;;;;;5040103;28;20055;-59
2022/03/18 00:22:02;;;;;;;6.50;3.60;;;4.60;99.90;;;;;;5037875;28;20053;-60
2022/03/18 00:24:31;;;;;;;9.93;4.55;;;4.60;99.90;;;;;;5042235;28;20677;-59
2022/03/18 00:26:57;;;;;;;6.65;4.55;;;4.50;99.90;;;;;;5044666;28;20049;-60
2022/03/18 00:29:22;;;;;;;4.38;3.00;;;4.30;99.90;;;;;;5041946;28;20083;-60
2022/03/18 00:31:48;;;;;;;7.20;4.47;;;4.60;99.90;;;;;;5045868;28;20048;-61
2022/03/18 00:34:14;;;;;;;8.23;5.22;;;4.60;99.90;;;;;;5046244;28;20144;-60
2022/03/18 00:36:39;;;;;;;6.85;4.50;;;4.20;99.90;;;;;;5041573;28;20094;-59
2022/03/18 00:39:06;;;;;;;9.52;5.15;;;4.60;99.90;;;;;;5040099;28;20051;-60
2022/03/18 00:41:31;;;;;;;6.80;3.67;;;4.50;99.90;;;;;;5037288;28;20045;-60
2022/03/18 00:43:57;;;;;;;6.03;3.90;;;4.60;99.90;;;;;;5043222;28;20074;-61
2022/03/18 00:46:24;;;;;;;8.45;4.45;;;4.50;99.90;;;;;;5045386;28;20070;-59
2022/03/18 00:54:20;;;;;;;7.43;4.30;;;4.50;99.90;;;;;;5043175;28;20051;-59
2022/03/18 00:56:46;;;;;;;8.38;4.97;;;4.50;99.90;;;;;;5045750;28;20038;-60
2022/03/18 00:59:11;;;;;;;5.70;4.72;;;4.50;99.90;;;;;;5026188;28;20638;-60
2022/03/18 01:01:38;;;;;;;10.65;5.28;;;4.50;99.90;;;;;;5040700;28;20052;-59
2022/03/18 01:04:04;;;;;;;6.95;5.18;;;4.50;99.90;;;;;;5034924;28;20053;-59
2022/03/18 01:06:35;;;;;;;8.27;4.03;;;4.50;99.90;;;;;;5035811;28;20048;-60
2022/03/18 01:09:02;;;;;;;9.77;5.45;;;4.40;99.90;;;;;;5036247;28;20559;-60
2022/03/18 01:11:29;;;;;;;7.68;4.35;;;4.50;99.90;;;;;;5035805;28;20496;-60
2022/03/18 01:13:55;;;;;;;10.07;4.68;;;4.50;99.90;;;;;;5045277;28;20502;-59
2022/03/18 01:16:20;;;;;;;13.25;4.97;;;4.40;99.90;;;;;;5038700;28;20053;-60
2022/03/18 01:18:46;;;;;;;7.85;4.70;;;4.50;99.90;;;;;;5056232;28;20051;-60
2022/03/18 01:21:11;;;;;;;9.45;5.50;;;4.40;99.90;;;;;;5057220;28;20044;-60
2022/03/18 01:23:37;;;;;;;6.82;4.53;;;4.40;99.90;;;;;;5034930;28;20066;-60
2022/03/18 01:26:02;;;;;;;7.75;6.05;;;4.40;99.90;;;;;;5036886;28;20698;-60
2022/03/18 01:28:29;;;;;;;8.90;6.30;;;4.40;99.90;;;;;;5042240;28;20518;-60
2022/03/18 01:30:56;;;;;;;9.48;5.68;;;4.40;99.90;;;;;;5055406;28;20833;-60
2022/03/18 01:33:21;;;;;;;7.97;5.05;;;4.40;99.90;;;;;;5049776;28;20049;-60
2022/03/18 01:35:47;;;;;;;8.07;5.30;;;4.40;99.90;;;;;;5056735;28;20054;-60
2022/03/18 01:38:12;;;;;;;13.55;5.60;;;4.40;99.90;;;;;;5056471;28;20032;-59
2022/03/18 01:40:38;;;;;;;6.47;5.05;;;4.40;99.90;;;;;;5039068;28;20113;-61
2022/03/18 01:43:11;;;;;;;10.30;5.93;;;4.40;99.90;;;;;;5057080;28;20136;-62
2022/03/18 01:45:38;;;;;;;15.15;6.45;;;4.40;99.90;;;;;;5056092;28;20075;-60
2022/03/18 01:48:05;;;;;;;11.48;6.32;;;4.30;99.90;;;;;;5056697;28;20060;-60
2022/03/18 01:50:31;;;;;;;10.98;5.32;;;4.30;99.90;;;;;;5056263;28;20059;-60
2022/03/18 01:52:58;;;;;;;12.90;6.25;;;4.30;99.90;;;;;;5055694;28;20044;-61
2022/03/18 01:55:24;;;;;;;13.63;6.13;;;4.30;99.90;;;;;;5056429;28;20138;-60
2022/03/18 01:57:50;;;;;;;11.40;5.72;;;4.30;99.90;;;;;;5056490;28;20135;-60
2022/03/18 02:00:19;;;;;;;13.52;6.30;;;4.30;99.90;;;;;;5049107;28;20076;-60
2022/03/18 02:02:45;;;;;;;5.72;4.35;;;4.30;99.90;;;;;;5056578;28;20538;-60
2022/03/18 02:05:11;;;;;;;13.38;5.88;;;4.30;99.90;;;;;;5056714;28;20044;-60
2022/03/18 02:07:37;;;;;;;15.20;7.53;;;4.30;99.90;;;;;;5037821;28;20763;-60
2022/03/18 02:10:04;;;;;;;10.95;5.82;;;4.30;99.90;;;;;;5056203;28;20040;-61
2022/03/18 02:12:30;;;;;;;9.10;5.78;;;4.30;99.90;;;;;;5056640;28;20048;-60
2022/03/18 02:14:56;;;;;;;14.40;7.25;;;4.30;99.90;;;;;;5055186;28;20047;-60
2022/03/18 02:17:21;;;;;;;9.02;5.45;;;4.30;99.90;;;;;;5038762;28;20139;-60
2022/03/18 02:19:47;;;;;;;10.27;5.47;;;4.20;99.90;;;;;;5037775;28;20056;-61
2022/03/18 02:22:27;;;;;;;11.57;5.85;;;4.30;99.90;;;;;;5055674;28;20048;-60
2022/03/18 02:24:55;;;;;;;10.38;5.65;;;4.30;99.90;;;;;;5036195;28;20044;-60
2022/03/18 02:27:21;;;;;;;10.25;5.78;;;4.20;99.90;;;;;;5035548;28;20056;-60
2022/03/18 02:29:47;;;;;;;13.60;7.22;;;4.40;99.90;;;;;;5051684;28;20053;-59
2022/03/18 02:32:13;;;;;;;10.85;6.60;;;4.30;99.90;;;;;;5056602;28;20098;-60
2022/03/18 02:34:39;;;;;;;15.52;7.13;;;4.20;99.90;;;;;;5055384;28;20583;-60
2022/03/18 02:37:06;;;;;;;10.00;5.95;;;4.30;99.90;;;;;;5056785;28;20056;-60
2022/03/18 02:39:31;;;;;;;7.15;5.95;;;4.30;99.90;;;;;;5056354;28;20131;-60
2022/03/18 02:41:57;;;;;;;9.77;5.00;;;4.20;99.90;;;;;;5033164;28;20056;-61
2022/03/18 02:44:23;;;;;;;11.50;6.03;;;4.30;99.90;;;;;;5035989;28;20106;-60
2022/03/18 02:46:49;;;;;;;6.22;4.78;;;4.30;99.90;;;;;;5036202;28;20484;-60
2022/03/18 02:49:15;;;;;;;9.40;5.63;;;4.30;99.90;;;;;;5035281;28;20862;-60
2022/03/18 02:51:41;;;;;;;10.95;6.35;;;4.30;99.90;;;;;;5036030;28;20041;-60
2022/03/18 02:54:08;;;;;;;6.93;5.25;;;4.30;99.90;;;;;;5049305;28;20045;-62
2022/03/18 02:56:34;;;;;;;7.45;4.28;;;4.30;99.90;;;;;;5054627;28;20048;-61
2022/03/18 02:59:03;;;;;;;9.15;5.93;;;4.20;99.90;;;;;;5055148;28;20499;-60
2022/03/18 03:01:30;;;;;;;8.45;4.82;;;4.30;99.90;;;;;;5054954;28;20578;-61
2022/03/18 03:03:57;;;;;;;10.10;5.68;;;4.30;99.90;;;;;;5047852;28;20044;-61
2022/03/18 03:09:07;;;;;;;11.43;5.65;;;4.20;99.90;;;;;;5054869;28;20048;-60
2022/03/18 03:11:34;;;;;;;8.35;4.97;;;4.20;99.90;;;;;;5036918;28;20234;-60
2022/03/18 03:14:00;;;;;;;8.70;5.18;;;4.10;99.90;;;;;;5055535;28;20055;-60
2022/03/18 03:16:26;;;;;;;11.35;6.85;;;4.10;99.90;;;;;;5055419;28;20339;-60
2022/03/18 03:18:52;;;;;;;8.00;5.60;;;4.10;99.90;;;;;;5049445;28;20496;-59
2022/03/18 03:21:18;;;;;;;11.98;6.57;;;4.20;99.90;;;;;;5056010;28;20102;-60
2022/03/18 03:23:44;;;;;;;10.20;5.13;;;4.20;99.90;;;;;;5055356;28;20057;-60
2022/03/18 03:26:14;;;;;;;9.95;6.38;;;4.20;99.90;;;;;;5056407;28;20127;-61
2022/03/18 03:28:40;;;;;;;12.25;6.35;;;4.10;99.90;;;;;;5035592;28;20048;-60
2022/03/18 03:31:05;;;;;;;9.75;5.53;;;4.10;99.90;;;;;;5052463;28;20102;-61
2022/03/18 03:33:32;;;;;;;12.35;5.68;;;4.10;99.90;;;;;;5046865;28;20129;-60
2022/03/18 03:35:58;;;;;;;11.63;6.15;;;4.10;99.90;;;;;;5055201;28;20049;-61
2022/03/18 03:38:25;;;;;;;8.52;4.93;;;4.20;99.90;;;;;;5054412;28;20147;-60
2022/03/18 03:40:51;;;;;;;10.75;6.03;;;4.10;99.90;;;;;;5055008;28;20044;-61
2022/03/18 03:43:16;;;;;;;10.68;5.97;;;4.10;99.90;;;;;;5054704;28;20462;-60
2022/03/18 03:45:42;;;;;;;6.78;4.90;;;4.10;99.90;;;;;;5055016;28;20087;-61
2022/03/18 03:48:08;;;;;;;7.45;4.70;;;4.10;99.90;;;;;;5055369;28;20051;-61
2022/03/18 03:50:34;;;;;;;9.38;5.38;;;4.10;99.90;;;;;;5038055;28;20044;-60
2022/03/18 03:53:02;;;;;;;9.52;5.70;;;4.10;99.90;;;;;;5055841;28;20082;-59
2022/03/18 03:55:28;;;;;;;10.13;5.25;;;4.10;99.90;;;;;;5059616;28;20098;-60
2022/03/18 03:57:53;;;;;;;6.68;4.60;;;4.10;99.90;;;;;;5059556;28;20040;-60
2022/03/18 04:00:19;;;;;;;6.80;4.35;;;4.00;99.90;;;;;;5040441;28;20053;-60
2022/03/18 04:02:45;;;;;;;7.18;5.40;;;4.10;99.90;;;;;;5059038;28;20151;-61
2022/03/18 04:05:11;;;;;;;9.82;6.18;;;4.10;99.90;;;;;;5059103;28;20446;-60
2022/03/18 04:07:39;;;;;;;10.02;5.60;;;4.10;99.90;;;;;;5058127;28;20079;-60
2022/03/18 04:10:07;;;;;;;7.40;5.28;;;4.10;99.90;;;;;;5058565;28;20059;-60
2022/03/18 04:12:33;;;;;;;10.63;7.15;;;4.10;99.90;;;;;;5057679;28;20052;-60
2022/03/18 04:14:59;;;;;;;8.52;6.03;;;4.00;99.90;;;;;;5058844;28;20044;-60
2022/03/18 04:17:27;;;;;;;10.13;6.32;;;4.00;99.90;;;;;;5059028;28;20151;-59
2022/03/18 04:19:53;;;;;;;10.50;5.78;;;4.00;99.90;;;;;;5058135;28;20044;-59
2022/03/18 04:22:21;;;;;;;9.60;6.07;;;4.00;99.90;;;;;;5059046;28;20076;-59
2022/03/18 04:24:46;;;;;;;7.82;5.43;;;4.00;99.90;;;;;;5058753;28;20091;-60
2022/03/18 04:27:12;;;;;;;7.95;6.07;;;4.00;99.90;;;;;;5057914;28;20563;-61
2022/03/18 04:29:37;;;;;;;10.85;7.25;;;4.00;99.90;;;;;;5058332;28;20047;-60
2022/03/18 04:32:03;;;;;;;7.20;5.90;;;4.00;99.90;;;;;;5058865;28;20057;-61
2022/03/18 04:34:29;;;;;;;8.68;6.53;;;4.00;99.90;;;;;;5057733;28;20071;-61
2022/03/18 04:36:54;;;;;;;10.93;6.75;;;4.00;99.90;;;;;;5039889;28;20056;-60
2022/03/18 04:39:20;;;;;;;9.80;7.32;;;4.00;99.90;;;;;;5057691;28;20048;-59
2022/03/18 04:41:45;;;;;;;7.50;5.53;;;4.00;99.90;;;;;;5057154;28;20092;-59
2022/03/18 04:44:11;;;;;;;10.63;6.13;;;4.10;99.90;;;;;;5058408;28;20045;-60
2022/03/18 04:46:37;;;;;;;17.67;7.07;;;4.00;99.90;;;;;;5057869;28;20051;-60
2022/03/18 04:49:02;;;;;;;11.23;5.53;;;4.00;99.90;;;;;;5057535;28;20049;-61
2022/03/18 04:51:30;;;;;;;8.82;6.63;;;4.00;99.90;;;;;;5057961;28;20036;-60
2022/03/18 04:53:56;;;;;;;10.60;6.35;;;4.00;99.90;;;;;;5057955;28;20063;-60
2022/03/18 04:59:06;;;;;;;9.20;5.93;;;4.00;99.90;;;;;;5057620;28;20044;-60
2022/03/18 05:01:32;;;;;;;10.60;7.07;;;4.00;99.90;;;;;;5057503;28;20566;-60
2022/03/18 05:03:58;;;;;;;7.32;5.38;;;4.00;99.90;;;;;;5057365;28;20044;-60
2022/03/18 05:06:25;;;;;;;9.88;6.95;;;3.90;99.90;;;;;;5056516;28;20048;-59
2022/03/18 05:08:51;;;;;;;6.55;4.63;;;3.90;99.90;;;;;;5057355;28;20120;-60
2022/03/18 05:11:16;;;;;;;12.40;6.50;;;3.90;99.90;;;;;;5058029;28;20100;-60
2022/03/18 05:13:42;;;;;;;22.80;6.70;;;3.90;99.90;;;;;;5058111;28;20209;-60
2022/03/18 05:16:15;;;;;;;6.78;5.43;;;3.90;99.90;;;;;;5057333;28;20090;-61
2022/03/18 05:18:40;;;;;;;8.75;6.20;;;3.80;99.90;;;;;;5057679;28;20048;-60
2022/03/18 05:21:06;;;;;;;9.05;5.15;;;3.80;99.90;;;;;;5057607;28;20148;-60
2022/03/18 05:23:32;;;;;;;11.70;6.95;;;3.80;99.90;;;;;;5056947;28;20404;-60
2022/03/18 05:25:58;;;;;;;9.75;5.95;;;3.70;99.90;;;;;;5057493;28;20056;-60
2022/03/18 05:28:24;;;;;;;8.63;6.38;;;3.70;99.90;;;;;;5051998;28;20070;-61
2022/03/18 05:30:50;;;;;;;8.60;6.57;;;3.80;99.90;;;;;;5043479;28;20040;-59
2022/03/18 05:33:16;;;;;;;12.30;7.60;;;3.70;99.90;;;;;;5047748;28;20088;-60
2022/03/18 05:35:41;;;;;;;9.43;6.55;;;3.80;99.90;;;;;;5050825;28;20134;-60
2022/03/18 05:38:07;;;;;;;11.52;6.65;;;3.80;99.90;;;;;;5056008;28;20048;-60
2022/03/18 05:40:32;;;;;;;9.82;6.28;;;3.80;99.90;;;;;;5049320;28;20037;-60
2022/03/18 05:42:58;;;;;;;11.13;7.90;;;3.70;99.90;;;;;;5042175;28;20110;-61
2022/03/18 05:45:23;;;;;;;8.73;6.50;;;3.70;99.90;;;;;;5021538;28;20155;-60
2022/03/18 05:47:49;;;;;;;7.65;6.38;;;3.70;99.90;;;;;;5046021;28;20036;-60
2022/03/18 05:50:16;;;;;;;8.52;6.90;;;3.70;99.90;;;;;;5047365;28;20055;-61
2022/03/18 05:52:43;;;;;;;7.28;5.88;;;3.70;99.90;;;;;;5041560;28;20120;-60
2022/03/18 05:55:08;;;;;;;8.25;7.40;;;3.70;99.90;;;;;;5043401;28;20037;-62
2022/03/18 05:57:34;;;;;;;12.52;8.60;;;3.70;99.90;;;;;;5049797;28;20080;-60
2022/03/18 06:00:01;;;;;;;12.93;7.72;;;3.70;99.90;;;;;;5045775;28;20043;-60
2022/03/18 06:02:28;;;;;;;14.35;7.75;;;3.70;99.90;;;;;;5043969;28;20525;-60
2022/03/18 06:04:54;;;;;;;16.70;8.20;;;3.70;99.90;;;;;;5026857;28;20056;-60
2022/03/18 06:07:19;;;;;;;10.30;7.85;;;3.70;99.90;;;;;;5043218;28;20041;-60
2022/03/18 06:12:29;;;;;;;17.85;9.27;;;3.80;99.90;;;;;;5042237;28;20067;-60
2022/03/18 06:14:54;;;;;;;12.45;7.50;;;3.80;99.90;;;;;;5048377;28;20047;-60
2022/03/18 06:17:20;;;;;;;26.45;8.95;;;3.90;99.90;;;;;;5050950;28;20106;-60
2022/03/18 06:19:46;;;;;;;9.77;7.45;;;3.90;99.90;;;;;;5050880;28;20051;-59
2022/03/18 06:22:11;;;;;;;10.82;7.50;;;3.90;99.90;;;;;;5043463;28;20057;-60
2022/03/18 06:24:37;;;;;;;13.52;8.77;;;3.90;99.90;;;;;;5037470;28;20037;-60
2022/03/18 06:27:06;;;;;;;10.35;6.40;;;4.10;99.90;;;;;;5042414;28;20832;-61
2022/03/18 06:29:31;;;;;;;18.30;9.02;;;4.00;99.90;;;;;;5049534;28;20050;-59
2022/03/18 06:31:59;;;;;;;15.13;8.38;;;4.10;99.90;;;;;;5044837;28;20577;-60
2022/03/18 06:34:25;;;;;;;14.73;9.13;;;4.10;99.90;;;;;;5041979;28;20049;-60
2022/03/18 06:36:52;;;;;;;12.75;9.63;;;4.20;99.90;;;;;;5056358;28;20048;-59
2022/03/18 06:39:19;;;;;;;12.77;8.88;;;4.20;99.90;;;;;;5055510;28;20044;-60
2022/03/18 06:41:46;;;;;;;14.45;8.90;;;4.30;99.90;;;;;;5054882;28;20102;-59
2022/03/18 06:44:11;;;;;;;20.70;10.05;;;4.40;99.90;;;;;;5055520;28;20049;-60
2022/03/18 06:46:37;;;;;;;17.92;9.50;;;4.40;99.90;;;;;;5054336;28;20040;-60
2022/03/18 06:49:05;;;;;;;16.45;9.57;;;4.50;99.90;;;;;;5052717;28;20109;-60
2022/03/18 06:51:31;;;;;;;17.98;10.30;;;4.60;99.90;;;;;;5036255;28;20048;-60
2022/03/18 06:53:56;;;;;;;16.23;11.25;;;4.70;99.90;;;;;;5053218;28;20582;-59
2022/03/18 06:56:22;;;;;;;11.75;9.27;;;4.80;99.90;;;;;;5053056;28;20217;-60
2022/03/18 06:58:48;;;;;;;14.85;10.43;;;4.80;99.90;;;;;;5053224;28;20044;-61
2022/03/18 07:01:13;;;;;;;13.52;10.23;;;4.90;99.90;;;;;;5052397;28;20048;-60
2022/03/18 07:03:39;;;;;;;11.85;10.65;;;5.00;99.90;;;;;;5053501;28;20155;-60
2022/03/18 07:06:06;;;;;;;17.08;10.20;;;5.10;99.90;;;;;;5052732;28;20084;-61
2022/03/18 07:08:35;;;;;;;20.67;11.25;;;5.20;99.90;;;;;;5052234;28;20052;-61
2022/03/18 07:11:02;;;;;;;17.60;11.13;;;5.30;99.90;;;;;;5053049;28;20079;-60
2022/03/18 07:13:27;;;;;;;11.88;9.93;;;5.40;99.90;;;;;;5049289;28;20730;-60
2022/03/18 07:15:53;;;;;;;12.38;10.90;;;5.50;99.90;;;;;;5040836;28;20040;-60
2022/03/18 07:18:19;;;;;;;15.98;11.38;;;5.50;99.90;;;;;;5053396;28;20721;-60
2022/03/18 07:20:44;;;;;;;15.73;11.05;;;5.70;99.90;;;;;;5048671;28;20556;-60
2022/03/18 07:23:14;;;;;;;16.67;11.80;;;5.70;99.90;;;;;;5044650;28;20044;-61
2022/03/18 07:25:48;;;;;;;15.68;11.63;;;5.80;99.90;;;;;;5032081;28;20048;-60
2022/03/18 07:28:15;;;;;;;15.00;10.50;;;5.90;99.90;;;;;;5034110;28;20076;-60
2022/03/18 07:30:42;;;;;;;18.63;10.48;;;6.00;99.90;;;;;;5039341;28;20563;-62
2022/03/18 07:33:09;;;;;;;15.10;10.90;;;6.10;99.90;;;;;;5042537;28;20393;-61
2022/03/18 07:35:35;;;;;;;16.10;11.25;;;6.30;99.90;;;;;;5037859;28;20053;-60
2022/03/18 07:38:08;;;;;;;16.70;11.90;;;6.40;99.90;;;;;;5054270;28;20044;-61
2022/03/18 07:40:34;;;;;;;19.67;10.90;;;6.50;99.90;;;;;;5048775;28;20804;-60
2022/03/18 07:43:00;;;;;;;12.13;10.13;;;6.60;99.90;;;;;;5040494;28;20393;-60
2022/03/18 07:45:28;;;;;;;13.48;10.77;;;6.70;99.90;;;;;;5042221;28;20560;-61
2022/03/18 07:47:56;;;;;;;16.05;9.68;;;6.90;99.90;;;;;;5045004;28;20060;-60
2022/03/18 07:50:24;;;;;;;17.83;10.90;;;7.00;99.90;;;;;;5041244;28;20086;-61
2022/03/18 07:52:52;;;;;;;13.95;10.88;;;7.10;99.90;;;;;;5043290;28;20045;-60
2022/03/18 07:55:19;;;;;;;11.23;10.02;;;7.30;99.90;;;;;;5039171;28;20055;-60
2022/03/18 07:57:45;;;;;;;13.10;9.57;;;7.60;99.90;;;;;;5021982;28;20594;-60
2022/03/18 08:00:13;;;;;;;31.25;11.40;;;8.60;99.90;;;;;;5044453;28;20044;-61
2022/03/18 08:02:39;;;;;;;13.52;9.05;;;10.10;99.90;;;;;;5043264;28;20587;-61
2022/03/18 08:05:06;;;;;;;12.68;9.23;;;11.40;99.90;;;;;;5037451;28;20045;-61
2022/03/18 08:07:33;;;;;;;17.23;9.32;;;12.80;99.90;;;;;;5040900;28;20829;-60
2022/03/18 08:09:59;;;;;;;17.00;8.63;;;13.80;99.90;;;;;;5043767;28;20053;-61
2022/03/18 08:12:28;;;;;;;14.13;9.30;;;14.40;99.90;;;;;;5038643;28;20728;-61
2022/03/18 08:14:54;;;;;;;14.85;8.85;;;14.90;99.90;;;;;;5045940;28;20159;-60
2022/03/18 08:17:20;;;;;;;10.07;8.43;;;15.40;99.90;;;;;;5044973;28;20059;-61
2022/03/18 08:19:45;;;;;;;11.43;9.75;;;15.70;99.90;;;;;;5019548;28;20058;-61
2022/03/18 08:22:11;;;;;;;16.70;9.88;;;15.80;99.90;;;;;;5041246;28;20044;-61
2022/03/18 08:24:37;;;;;;;11.43;7.63;;;15.30;99.90;;;;;;5036923;28;20075;-61
2022/03/18 08:27:03;;;;;;;11.90;8.40;;;15.80;99.90;;;;;;5036820;28;20044;-62
2022/03/18 08:29:28;;;;;;;17.15;9.30;;;16.40;99.90;;;;;;5039492;28;20033;-60
2022/03/18 08:31:54;;;;;;;14.93;8.38;;;16.50;99.90;;;;;;5038860;28;20076;-60
2022/03/18 08:34:20;;;;;;;10.60;7.90;;;16.70;99.90;;;;;;5039988;28;20179;-60
2022/03/18 08:36:46;;;;;;;14.60;9.45;;;16.60;99.90;;;;;;5040861;28;20083;-60
2022/03/18 08:39:12;;;;;;;12.45;8.60;;;16.10;99.90;;;;;;5038015;28;20140;-60
2022/03/18 08:41:38;;;;;;;12.13;8.55;;;15.60;99.90;;;;;;5040687;28;20044;-60
2022/03/18 08:44:03;;;;;;;14.48;8.27;;;16.00;99.90;;;;;;5040705;28;20052;-62
2022/03/18 08:46:29;;;;;;;15.77;9.50;;;16.70;99.90;;;;;;5036268;28;20048;-60
2022/03/18 08:48:54;;;;;;;14.77;8.27;;;16.70;99.10;;;;;;5035356;28;20138;-60
2022/03/18 08:51:20;;;;;;;14.77;9.23;;;16.60;99.90;;;;;;5035381;28;20645;-62
2022/03/18 08:53:46;;;;;;;13.90;8.65;;;17.10;99.90;;;;;;5035007;28;20047;-60
2022/03/18 08:56:11;;;;;;;14.05;7.90;;;17.70;99.80;;;;;;5035388;28;20649;-60
2022/03/18 08:58:37;;;;;;;15.65;9.60;;;18.00;98.80;;;;;;5034548;28;20758;-61
2022/03/18 09:01:02;;;;;;;19.65;8.85;;;17.60;98.30;;;;;;5038502;28;20071;-60
2022/03/18 09:03:28;;;;;;;13.30;9.20;;;17.10;98.00;;;;;;5052216;28;21396;-60
2022/03/18 09:05:54;;;;;;;15.07;9.35;;;16.50;98.70;;;;;;5040922;28;20052;-60
2022/03/18 09:08:19;;;;;;;14.68;9.00;;;16.30;97.90;;;;;;5045932;28;20132;-60
2022/03/18 09:10:45;;;;;;;19.13;10.18;;;16.60;99.10;;;;;;5039697;28;20340;-60
2022/03/18 09:13:11;;;;;;;14.63;9.38;;;16.90;97.70;;;;;;5039840;28;20132;-62
2022/03/18 09:15:36;;;;;;;15.75;9.45;;;16.30;98.70;;;;;;5023350;28;20388;-60
2022/03/18 09:18:02;;;;;;;15.20;9.88;;;16.30;98.10;;;;;;5037229;28;20118;-61
2022/03/18 09:20:27;;;;;;;15.13;8.15;;;16.20;96.70;;;;;;5036587;28;20070;-61
2022/03/18 09:22:53;;;;;;;14.10;9.32;;;16.70;98.60;;;;;;5036996;28;20888;-61
2022/03/18 09:25:20;;;;;;;14.48;9.27;;;16.50;98.80;;;;;;5036911;28;20048;-61
2022/03/18 09:27:46;;;;;;;16.85;9.90;;;16.80;97.40;;;;;;5048896;28;20155;-61
2022/03/18 09:30:13;;;;;;;13.38;8.13;;;17.30;97.60;;;;;;5037527;28;20055;-61
2022/03/18 09:32:42;;;;;;;16.08;9.02;;;17.70;97.40;;;;;;5055156;28;20058;-61
2022/03/18 09:35:09;;;;;;;13.18;8.95;;;17.60;96.40;;;;;;5056675;28;20052;-61
2022/03/18 09:37:35;;;;;;;13.98;9.07;;;18.10;96.90;;;;;;5038557;28;20044;-61
2022/03/18 09:40:04;;;;;;;11.00;8.52;;;18.50;96.70;;;;;;5039183;28;20855;-61
2022/03/18 09:42:52;;;;;;;13.70;8.55;;;18.30;95.30;;;;;;5057546;28;20862;-62
2022/03/18 09:45:19;;;;;;;17.55;9.45;;;18.50;95.70;;;;;;5057598;28;20097;-62
2022/03/18 09:47:46;;;;;;;13.55;9.13;;;18.90;95.40;;;;;;5057068;28;20055;-61
2022/03/18 09:50:11;;;;;;;13.40;9.55;;;19.20;94.80;;;;;;5054907;28;20097;-62
2022/03/18 09:52:38;;;;;;;14.77;9.13;;;19.70;94.20;;;;;;5037568;28;20044;-61
2022/03/18 09:55:04;;;;;;;19.55;9.73;;;20.00;93.70;;;;;;5035952;28;20047;-62
2022/03/18 09:57:29;;;;;;;14.25;8.05;;;20.40;93.10;;;;;;5018187;28;20056;-61
2022/03/18 09:59:55;;;;;;;17.90;9.70;;;20.20;92.40;;;;;;5035068;28;20041;-60
2022/03/18 10:02:29;;;;;;;12.95;7.50;;;19.80;91.80;;;;;;5047914;28;20733;-62
2022/03/18 10:04:59;;;;;;;13.55;7.60;;;18.90;92.20;;;;;;5035346;28;20059;-62
2022/03/18 10:07:26;;;;;;;16.00;7.75;;;18.40;93.70;;;;;;5052812;28;20080;-61
2022/03/18 10:10:15;;;;;;;12.38;7.53;;;18.00;94.60;;;;;;5033849;28;20060;-61
2022/03/18 10:12:45;;;;;;;13.98;8.68;;;18.30;93.90;;;;;;5043877;28;20147;-61
2022/03/18 10:15:20;;;;;;;14.73;8.15;;;18.00;94.30;;;;;;5046653;28;20083;-61
2022/03/18 10:17:50;;;;;;;12.52;7.65;;;18.20;94.50;;;;;;4698563;28;9999785;-61
2022/03/18 10:20:26;;;;;;;10.93;7.00;;;18.80;93.90;;;;;;5035190;28;20549;-61
2022/03/18 10:22:53;;;;;;;14.63;7.97;;;19.60;92.90;;;;;;5054397;28;20045;-60
2022/03/18 10:25:40;;;;;;;15.10;8.77;;;19.40;91.80;;;;;;5053403;28;20048;-62
2022/03/18 10:28:08;;;;;;;10.32;7.20;;;18.70;91.50;;;;;;5052824;28;20053;-62
2022/03/18 10:30:35;;;;;;;17.02;8.00;;;19.40;92.70;;;;;;5053412;28;20047;-61
2022/03/18 10:33:01;;;;;;;20.05;8.00;;;19.90;91.70;;;;;;5052581;28;20056;-62
2022/03/18 10:38:35;;;;;;;11.52;7.18;;;19.60;91.70;;;;;;5040870;28;20050;-61
2022/03/18 10:41:23;;;;;;;16.58;8.52;;;19.40;90.20;;;;;;5040352;28;20045;-60
2022/03/18 10:43:53;;;;;;;14.02;8.13;;;19.90;89.50;;;;;;5048804;28;20204;-60
2022/03/18 10:46:19;;;;;;;11.25;6.88;;;20.20;91.20;;;;;;5034871;28;20048;-60
2022/03/18 10:49:05;;;;;;;16.65;8.30;;;20.50;90.80;;;;;;5034702;28;20110;-61
2022/03/18 10:51:31;;;;;;;12.88;7.70;;;19.60;87.70;;;;;;5030350;28;20651;-61
2022/03/18 10:53:57;;;;;;;16.02;8.57;;;19.60;91.60;;;;;;5040243;28;20358;-61
2022/03/18 10:56:24;;;;;;;12.20;8.25;;;19.10;92.00;;;;;;5039678;28;20124;-61
2022/03/18 10:58:50;;;;;;;14.15;8.15;;;18.30;93.10;;;;;;5040162;28;20041;-61
2022/03/18 11:01:15;;;;;;;12.05;7.78;;;17.00;94.60;;;;;;5036394;28;20102;-60
2022/03/18 11:03:42;;;;;;;15.80;8.43;;;15.80;95.90;;;;;;5044969;28;20152;-60
2022/03/18 11:06:09;;;;;;;7.78;6.80;;;15.60;97.40;;;;;;5034619;28;20733;-62
2022/03/18 11:08:47;;;;;;;13.60;7.45;;;15.00;98.30;;;;;;5039528;28;20076;-61
2022/03/18 11:11:18;;;;;;;14.27;9.25;;;14.90;98.60;;;;;;5038281;28;20051;-60
2022/03/18 11:14:04;;;;;;;15.82;8.00;;;14.50;99.50;;;;;;5044079;28;20041;-60
2022/03/18 11:16:33;;;;;;;15.95;9.18;;;14.30;99.90;;;;;;5035677;28;20049;-60
2022/03/18 11:19:01;;;;;;;14.95;8.48;;;14.10;99.90;;;;;;5045418;28;20048;-60
2022/03/18 11:21:35;;;;;;;13.68;8.18;;;14.00;99.90;;;;;;5036204;28;20048;-62
2022/03/18 11:24:22;;;;;;;14.05;8.23;;;14.00;99.90;;;;;;5015224;28;20406;-61
2022/03/18 11:26:50;;;;;;;13.35;8.30;;;13.80;99.90;;;;;;5042731;28;20041;-61
2022/03/18 11:29:23;;;;;;;12.73;7.72;;;13.80;99.90;;;;;;5037355;28;20621;-61
2022/03/18 11:32:07;;;;;;;;;;;13.90;99.90;;;;;;5045600;28;20120;-60
2022/03/18 11:34:50;;;;;;;12.70;7.80;;;13.90;99.90;;;;;;5036055;28;19951;-60
2022/03/18 11:37:18;;;;;;;13.57;7.90;;;14.20;99.90;;;;;;5036258;28;20063;-60
2022/03/18 11:39:43;;;;;;;18.20;8.30;;;14.10;99.90;;;;;;5019628;28;20040;-60
2022/03/18 11:42:09;;;;;;;19.08;9.93;;;14.20;99.90;;;;;;5039071;28;20040;-61
2022/03/18 11:44:40;;;;;;;11.00;8.07;;;14.10;99.90;;;;;;5033003;28;20791;-61
2022/03/18 11:47:20;;;;;;;13.88;9.20;;;14.20;99.90;;;;;;5034653;28;20080;-61
2022/03/18 11:49:47;;;;;;;11.75;8.15;;;14.20;99.90;;;;;;5038976;28;20060;-62
2022/03/18 11:52:13;;;;;;;11.35;8.10;;;14.10;99.90;;;;;;5039055;28;20032;-61
2022/03/18 11:54:58;;;;;;;10.82;8.15;;;14.30;99.90;;;;;;5047167;28;20153;-61
2022/03/18 11:57:33;;;;;;;15.25;8.27;;;14.20;99.90;;;;;;5047202;28;20177;-61
2022/03/18 12:00:00;;;;;;;14.75;8.88;;;14.40;99.90;;;;;;5043710;28;20137;-61
2022/03/18 12:02:37;;;;;;;16.63;7.60;;;14.50;99.90;;;;;;5046400;28;20090;-61
2022/03/18 12:05:06;;;;;;;10.20;7.47;;;14.60;99.90;;;;;;5041948;28;20052;-61
2022/03/18 12:07:48;;;;;;;14.30;8.68;;;14.60;99.90;;;;;;5033151;28;20051;-60
2022/03/18 12:10:14;;;;;;;14.82;7.28;;;14.50;99.90;;;;;;5044366;28;20048;-60
2022/03/18 12:12:48;;;;;;;9.75;6.40;;;14.50;99.90;;;;;;5024878;28;20076;-60
2022/03/18 12:15:17;;;;;;;7.28;6.57;;;14.40;99.90;;;;;;5058117;28;20156;-60
2022/03/18 12:17:52;;;;;;;12.98;7.00;;;14.40;99.90;;;;;;5058430;28;20825;-60
2022/03/18 12:20:24;;;;;;;11.15;6.50;;;14.40;99.90;;;;;;5058703;28;20228;-60
2022/03/18 12:22:51;;;;;;;13.05;7.55;;;14.40;99.90;;;;;;5058600;28;20048;-60
2022/03/18 12:25:17;;;;;;;9.80;7.38;;;14.50;99.90;;;;;;5057882;28;20820;-61
2022/03/18 12:27:44;;;;;;;7.88;7.13;;;14.70;99.90;;;;;;5058388;28;20074;-62
2022/03/18 12:30:11;;;;;;;13.30;8.35;;;14.80;99.90;;;;;;5058865;28;20037;-60
2022/03/18 12:33:01;;;;;;;14.25;7.90;;;14.70;99.90;;;;;;5057254;28;20135;-62
2022/03/18 12:35:33;;;;;;;12.13;7.70;;;14.60;99.90;;;;;;5056906;28;20055;-61
2022/03/18 12:38:07;;;;;;;11.43;6.25;;;14.60;99.90;;;;;;5058274;28;20880;-61
2022/03/18 12:40:34;;;;;;;13.05;7.40;;;14.80;99.90;;;;;;5057294;28;20044;-61
2022/03/18 12:43:04;;;;;;;12.48;6.65;;;14.70;99.80;;;;;;5054469;28;20048;-60
2022/03/18 12:45:42;;;;;;;13.50;7.07;;;14.90;99.90;;;;;;5037550;28;20045;-62
2022/03/18 12:48:14;;;;;;;14.50;8.77;;;14.80;99.90;;;;;;5036407;28;20049;-61
2022/03/18 12:50:43;;;;;;;14.70;7.25;;;14.80;99.90;;;;;;5036362;28;20047;-61
2022/03/18 12:53:15;;;;;;;11.10;7.00;;;14.70;99.90;;;;;;5018624;28;20169;-61
2022/03/18 12:55:45;;;;;;;14.82;7.93;;;14.60;99.90;;;;;;5036827;28;20576;-60
2022/03/18 12:58:14;;;;;;;10.88;7.60;;;14.70;99.90;;;;;;5036684;28;20202;-60
2022/03/18 13:00:41;;;;;;;15.20;8.70;;;14.80;99.90;;;;;;5035943;28;20178;-60
2022/03/18 13:03:11;;;;;;;12.27;7.53;;;14.80;99.90;;;;;;5056750;28;20133;-61